Time;durP1;ratioP1;P1;durP2;ratioP2;P2;SDS_P1;SDS_P2;PMS_P1;PMS_P2;Temp;Humidity;BMP_temperature;BMP_pressure;BME280_temperature;BME280_humidity;BME280_pressure;Samples;Min_cycle;Max_cycle;Signal;HPM_P1;HPM_P2
2023/06/14 00:02:24;;;;;;;6.80;6.13;;;;;;;;;;4957717;29;20736;-79
2023/06/14 00:04:51;;;;;;;14.95;6.85;;;;;;;;;;4956717;28;20250;-81
2023/06/14 00:07:18;;;;;;;7.03;6.32;;;;;;;;;;4959682;28;20434;-81
2023/06/14 00:09:46;;;;;;;6.40;5.90;;;;;;;;;;4971429;28;20220;-78
2023/06/14 00:12:16;;;;;;;6.90;6.20;;;;;;;;;;4961451;28;20237;-77
2023/06/14 00:14:43;;;;;;;7.35;6.25;;;;;;;;;;4962679;28;20211;-80
2023/06/14 00:17:11;;;;;;;8.23;7.35;;;;;;;;;;4962042;28;20518;-79
2023/06/14 00:19:40;;;;;;;7.30;6.53;;;;;;;;;;4963841;28;20531;-82
2023/06/14 00:22:08;;;;;;;7.82;7.13;;;;;;;;;;4966025;28;20238;-84
2023/06/14 00:24:35;;;;;;;8.07;6.03;;;;;;;;;;4975993;28;20187;-85
2023/06/14 00:27:02;;;;;;;6.10;5.63;;;;;;;;;;4976382;28;20202;-80
2023/06/14 00:29:30;;;;;;;7.15;6.45;;;;;;;;;;4971734;28;20234;-84
2023/06/14 00:31:57;;;;;;;10.55;6.93;;;;;;;;;;4976256;28;20229;-77
2023/06/14 00:34:25;;;;;;;6.10;5.60;;;;;;;;;;4979542;28;20205;-79
2023/06/14 00:36:52;;;;;;;7.10;5.50;;;;;;;;;;4979597;28;20199;-78
2023/06/14 00:39:19;;;;;;;6.82;6.13;;;;;;;;;;4970566;28;20206;-81
2023/06/14 00:41:48;;;;;;;7.38;6.65;;;;;;;;;;4969898;28;20202;-78
2023/06/14 00:44:16;;;;;;;6.63;6.03;;;;;;;;;;4971404;28;20210;-78
2023/06/14 00:46:46;;;;;;;7.22;6.30;;;;;;;;;;4969759;28;20214;-77
2023/06/14 00:49:15;;;;;;;7.40;6.65;;;;;;;;;;4973782;28;20673;-81
2023/06/14 00:51:42;;;;;;;8.18;7.38;;;;;;;;;;4964697;28;20250;-80
2023/06/14 00:54:10;;;;;;;7.60;6.78;;;;;;;;;;4961137;28;20309;-84
2023/06/14 00:56:39;;;;;;;9.25;7.45;;;;;;;;;;4959344;28;20214;-84
2023/06/14 00:59:07;;;;;;;7.57;6.75;;;;;;;;;;4961119;28;20218;-84
2023/06/14 01:01:36;;;;;;;7.05;6.55;;;;;;;;;;4962985;28;20235;-88
2023/06/14 01:04:05;;;;;;;6.53;5.93;;;;;;;;;;4961107;28;20239;-81
2023/06/14 01:07:02;;;;;;;7.40;6.70;;;;;;;;;;4963856;28;20287;-80
2023/06/14 01:09:30;;;;;;;7.57;6.80;;;;;;;;;;4955335;28;20282;-82
2023/06/14 01:12:33;;;;;;;8.20;7.40;;;;;;;;;;4959389;28;20546;-85
2023/06/14 01:15:00;;;;;;;8.00;7.20;;;;;;;;;;4902061;29;20220;-88
2023/06/14 01:17:31;;;;;;;7.43;6.57;;;;;;;;;;4949713;28;20211;-80
2023/06/14 01:20:02;;;;;;;11.43;9.20;;;;;;;;;;4961071;28;20203;-76
2023/06/14 01:22:30;;;;;;;7.40;6.70;;;;;;;;;;4961593;28;20257;-80
2023/06/14 01:24:57;;;;;;;9.15;7.45;;;;;;;;;;4963969;28;20203;-79
2023/06/14 01:27:29;;;;;;;8.02;7.22;;;;;;;;;;4960773;28;20305;-80
2023/06/14 01:29:57;;;;;;;9.27;8.13;;;;;;;;;;4944320;28;20215;-80
2023/06/14 01:32:27;;;;;;;9.15;6.80;;;;;;;;;;4962034;28;20246;-84
2023/06/14 01:34:54;;;;;;;7.10;6.40;;;;;;;;;;4964251;28;20719;-78
2023/06/14 01:37:22;;;;;;;8.73;7.45;;;;;;;;;;4963388;28;20211;-81
2023/06/14 01:39:50;;;;;;;7.43;6.78;;;;;;;;;;4961507;28;20255;-83
2023/06/14 01:42:18;;;;;;;7.82;7.13;;;;;;;;;;4960823;28;20218;-85
2023/06/14 01:44:48;;;;;;;7.38;6.78;;;;;;;;;;4960310;28;20219;-80
2023/06/14 01:47:15;;;;;;;8.68;7.25;;;;;;;;;;4959976;28;20210;-83
2023/06/14 01:49:43;;;;;;;9.40;7.15;;;;;;;;;;4965622;28;20207;-81
2023/06/14 01:52:11;;;;;;;7.90;7.10;;;;;;;;;;4970041;28;20418;-81
2023/06/14 01:54:42;;;;;;;8.68;7.25;;;;;;;;;;4966017;28;20222;-84
2023/06/14 01:57:10;;;;;;;7.90;7.10;;;;;;;;;;4964919;28;20532;-83
2023/06/14 01:59:38;;;;;;;8.10;6.20;;;;;;;;;;4962103;28;20233;-80
2023/06/14 02:02:06;;;;;;;9.82;7.60;;;;;;;;;;4965802;28;20242;-83
2023/06/14 02:04:33;;;;;;;8.77;7.03;;;;;;;;;;4963176;28;20225;-80
2023/06/14 02:07:01;;;;;;;12.35;8.38;;;;;;;;;;4961406;28;20226;-86
2023/06/14 02:09:28;;;;;;;9.70;8.35;;;;;;;;;;4957760;28;20241;-81
2023/06/14 02:11:56;;;;;;;11.73;7.30;;;;;;;;;;4965771;28;20223;-82
2023/06/14 02:14:24;;;;;;;8.10;7.40;;;;;;;;;;4965361;28;20211;-81
2023/06/14 02:16:54;;;;;;;8.73;7.82;;;;;;;;;;4958408;28;20250;-85
2023/06/14 02:19:21;;;;;;;8.43;7.47;;;;;;;;;;4954745;28;20222;-88
2023/06/14 02:21:49;;;;;;;10.57;8.02;;;;;;;;;;4958972;28;20222;-84
2023/06/14 02:24:18;;;;;;;9.48;8.27;;;;;;;;;;4963875;28;20271;-83
2023/06/14 02:26:47;;;;;;;9.90;8.93;;;;;;;;;;4960054;28;20246;-79
2023/06/14 02:29:15;;;;;;;12.20;9.00;;;;;;;;;;4961690;28;20187;-83
2023/06/14 02:31:43;;;;;;;9.68;8.50;;;;;;;;;;4956772;28;20250;-83
2023/06/14 02:34:11;;;;;;;12.43;9.48;;;;;;;;;;4962246;28;20214;-80
2023/06/14 02:36:41;;;;;;;9.82;8.82;;;;;;;;;;4962297;28;20203;-86
2023/06/14 02:39:10;;;;;;;12.00;9.60;;;;;;;;;;4963844;28;20278;-85
2023/06/14 02:41:38;;;;;;;14.75;8.48;;;;;;;;;;4958688;28;20425;-84
2023/06/14 02:44:06;;;;;;;9.70;8.70;;;;;;;;;;4959115;28;20207;-83
2023/06/14 02:46:33;;;;;;;12.02;8.35;;;;;;;;;;4955764;28;20694;-85
2023/06/14 02:49:01;;;;;;;8.93;7.80;;;;;;;;;;4962111;28;20299;-82
2023/06/14 02:51:28;;;;;;;9.15;8.07;;;;;;;;;;4962085;28;20241;-82
2023/06/14 02:53:56;;;;;;;8.90;8.00;;;;;;;;;;4963677;28;20209;-83
2023/06/14 02:56:25;;;;;;;7.90;7.18;;;;;;;;;;4963060;28;20583;-81
2023/06/14 02:58:53;;;;;;;10.25;8.02;;;;;;;;;;4960951;28;20274;-82
2023/06/14 03:01:21;;;;;;;9.98;7.78;;;;;;;;;;4955459;28;20211;-80
2023/06/14 03:03:48;;;;;;;8.65;7.72;;;;;;;;;;4959826;28;20211;-80
2023/06/14 03:06:16;;;;;;;7.88;7.18;;;;;;;;;;4958909;28;20494;-79
2023/06/14 03:08:43;;;;;;;9.05;7.47;;;;;;;;;;4957640;28;20257;-78
2023/06/14 03:11:11;;;;;;;7.47;6.78;;;;;;;;;;4958030;28;20241;-80
2023/06/14 03:13:40;;;;;;;8.50;7.75;;;;;;;;;;4958678;28;20511;-80
2023/06/14 03:16:08;;;;;;;10.18;7.95;;;;;;;;;;4958140;28;20317;-79
2023/06/14 03:18:38;;;;;;;12.18;9.88;;;;;;;;;;4951518;28;20262;-80
2023/06/14 03:21:08;;;;;;;9.25;8.45;;;;;;;;;;4958028;28;20523;-81
2023/06/14 03:23:36;;;;;;;10.73;8.82;;;;;;;;;;4959343;28;20236;-82
2023/06/14 03:26:03;;;;;;;12.80;7.90;;;;;;;;;;4959116;28;20218;-81
2023/06/14 03:28:30;;;;;;;16.55;8.07;;;;;;;;;;4962030;28;20558;-82
2023/06/14 03:30:58;;;;;;;9.45;8.60;;;;;;;;;;4958851;28;20231;-87
2023/06/14 03:33:28;;;;;;;10.30;7.50;;;;;;;;;;4960000;28;20211;-81
2023/06/14 03:35:56;;;;;;;10.05;8.57;;;;;;;;;;4959484;28;20215;-87
2023/06/14 03:38:23;;;;;;;8.48;7.20;;;;;;;;;;4955241;28;20411;-86
2023/06/14 03:40:51;;;;;;;7.75;7.05;;;;;;;;;;4957439;28;20439;-81
2023/06/14 03:43:18;;;;;;;8.35;7.43;;;;;;;;;;4956727;28;20247;-82
2023/06/14 03:45:46;;;;;;;9.40;8.48;;;;;;;;;;4954708;28;20551;-81
2023/06/14 03:48:13;;;;;;;8.30;7.60;;;;;;;;;;4959158;28;20213;-82
2023/06/14 03:50:42;;;;;;;9.13;7.63;;;;;;;;;;4958526;28;20245;-85
2023/06/14 03:53:10;;;;;;;8.52;7.60;;;;;;;;;;4959132;28;20591;-81
2023/06/14 03:55:38;;;;;;;10.00;8.20;;;;;;;;;;4960451;28;20407;-79
2023/06/14 03:58:27;;;;;;;11.05;7.40;;;;;;;;;;4960641;28;20254;-85
2023/06/14 04:00:55;;;;;;;12.30;8.35;;;;;;;;;;4959709;28;20211;-82
2023/06/14 04:03:24;;;;;;;7.75;7.05;;;;;;;;;;4955097;28;20281;-82
2023/06/14 04:05:56;;;;;;;9.32;8.40;;;;;;;;;;4962411;28;20207;-81
2023/06/14 04:08:24;;;;;;;8.88;6.35;;;;;;;;;;4964172;28;20238;-84
2023/06/14 04:10:53;;;;;;;6.82;6.20;;;;;;;;;;4963363;28;20526;-83
2023/06/14 04:13:22;;;;;;;7.13;6.50;;;;;;;;;;4974405;28;20199;-83
2023/06/14 04:15:49;;;;;;;7.85;7.03;;;;;;;;;;4975819;28;20214;-83
2023/06/14 04:18:19;;;;;;;6.75;6.05;;;;;;;;;;4966677;28;20433;-84
2023/06/14 04:20:51;;;;;;;9.38;7.53;;;;;;;;;;4962763;28;20217;-84
2023/06/14 04:23:19;;;;;;;8.50;7.70;;;;;;;;;;4970159;28;20236;-81
2023/06/14 04:25:49;;;;;;;9.63;6.43;;;;;;;;;;4961775;28;20267;-83
2023/06/14 04:28:18;;;;;;;8.33;6.13;;;;;;;;;;4975258;28;20480;-80
2023/06/14 04:30:47;;;;;;;7.00;6.37;;;;;;;;;;4963313;28;20649;-81
2023/06/14 04:33:17;;;;;;;11.53;6.97;;;;;;;;;;4961196;28;20442;-81
2023/06/14 04:35:47;;;;;;;9.40;7.90;;;;;;;;;;4960513;28;20441;-82
2023/06/14 04:38:17;;;;;;;8.37;7.23;;;;;;;;;;4955099;28;20708;-83
2023/06/14 04:40:45;;;;;;;10.20;6.90;;;;;;;;;;4958784;28;20487;-81
2023/06/14 04:43:15;;;;;;;7.80;7.03;;;;;;;;;;4959472;28;20450;-84
2023/06/14 04:45:45;;;;;;;7.43;6.70;;;;;;;;;;4958786;28;20457;-82
2023/06/14 04:48:13;;;;;;;7.83;6.70;;;;;;;;;;4957809;28;20447;-81
2023/06/14 04:50:41;;;;;;;8.03;6.90;;;;;;;;;;4959812;28;20878;-81
2023/06/14 04:53:11;;;;;;;7.83;7.03;;;;;;;;;;4960422;28;20490;-82
2023/06/14 04:55:39;;;;;;;8.07;7.30;;;;;;;;;;4962045;28;20437;-81
2023/06/14 04:58:07;;;;;;;13.30;7.33;;;;;;;;;;4962765;28;20717;-82
2023/06/14 05:00:35;;;;;;;11.10;7.87;;;;;;;;;;4963649;28;20453;-81
2023/06/14 05:03:02;;;;;;;9.50;6.70;;;;;;;;;;4966025;28;20466;-81
2023/06/14 05:05:30;;;;;;;14.33;8.73;;;;;;;;;;4963464;28;20468;-82
2023/06/14 05:07:58;;;;;;;12.30;8.17;;;;;;;;;;4963911;28;20456;-83
2023/06/14 05:10:25;;;;;;;7.07;6.47;;;;;;;;;;4956339;28;20484;-85
2023/06/14 05:12:54;;;;;;;7.83;7.00;;;;;;;;;;4973288;28;20482;-86
2023/06/14 05:15:25;;;;;;;7.03;6.37;;;;;;;;;;4976042;28;20438;-83
2023/06/14 05:17:55;;;;;;;8.20;7.50;;;;;;;;;;4970414;28;20487;-83
2023/06/14 05:20:26;;;;;;;7.47;6.77;;;;;;;;;;4971199;28;20750;-84
2023/06/14 05:22:54;;;;;;;10.03;9.03;;;;;;;;;;4966442;28;20790;-82
2023/06/14 05:25:22;;;;;;;12.87;9.07;;;;;;;;;;4961963;28;21026;-87
2023/06/14 05:27:49;;;;;;;10.80;9.70;;;;;;;;;;4961481;28;20463;-84
2023/06/14 05:30:18;;;;;;;10.40;9.40;;;;;;;;;;4962530;28;20478;-82
2023/06/14 05:32:45;;;;;;;13.10;10.40;;;;;;;;;;4960442;28;20481;-85
2023/06/14 05:35:12;;;;;;;11.60;9.97;;;;;;;;;;4962893;28;20521;-85
2023/06/14 05:37:40;;;;;;;13.33;10.53;;;;;;;;;;4969098;28;20443;-83
2023/06/14 05:40:08;;;;;;;14.30;11.10;;;;;;;;;;4966222;28;20786;-84
2023/06/14 05:42:36;;;;;;;12.23;10.97;;;;;;;;;;4967813;28;20455;-83
2023/06/14 05:45:04;;;;;;;14.10;11.30;;;;;;;;;;4963628;28;20606;-84
2023/06/14 05:47:31;;;;;;;11.93;10.73;;;;;;;;;;4960499;28;20453;-84
2023/06/14 05:49:58;;;;;;;13.87;11.13;;;;;;;;;;4961625;28;20495;-85
2023/06/14 05:52:29;;;;;;;14.23;11.37;;;;;;;;;;4961297;28;20678;-85
2023/06/14 05:54:56;;;;;;;17.73;15.03;;;;;;;;;;4962172;28;20459;-81
2023/06/14 05:57:24;;;;;;;21.00;13.80;;;;;;;;;;4962713;28;20487;-85
2023/06/14 05:59:51;;;;;;;12.07;10.90;;;;;;;;;;4958907;28;20463;-85
2023/06/14 06:02:19;;;;;;;12.23;10.37;;;;;;;;;;4959971;28;20563;-84
2023/06/14 06:04:47;;;;;;;12.30;11.03;;;;;;;;;;4960341;28;20667;-85
2023/06/14 06:07:14;;;;;;;12.53;10.60;;;;;;;;;;4962627;28;20453;-81
2023/06/14 06:09:42;;;;;;;13.37;12.10;;;;;;;;;;4962086;28;20506;-85
2023/06/14 06:12:10;;;;;;;13.77;11.67;;;;;;;;;;4958474;28;20530;-82
2023/06/14 06:14:37;;;;;;;14.30;10.57;;;;;;;;;;4961630;28;20808;-83
2023/06/14 06:17:05;;;;;;;13.37;11.73;;;;;;;;;;4960447;28;20431;-85
2023/06/14 06:19:32;;;;;;;13.37;11.97;;;;;;;;;;4960363;28;20799;-84
2023/06/14 06:22:00;;;;;;;12.70;11.40;;;;;;;;;;4959420;28;20434;-84
2023/06/14 06:24:27;;;;;;;11.90;10.57;;;;;;;;;;4956594;28;20452;-85
2023/06/14 06:26:55;;;;;;;11.13;9.70;;;;;;;;;;4964699;28;20475;-83
2023/06/14 06:29:22;;;;;;;15.47;12.47;;;;;;;;;;4963756;28;20435;-84
2023/06/14 06:31:50;;;;;;;17.50;11.30;;;;;;;;;;4961220;28;20465;-84
2023/06/14 06:34:17;;;;;;;16.20;10.40;;;;;;;;;;4964193;28;20438;-84
2023/06/14 06:36:45;;;;;;;12.43;11.10;;;;;;;;;;4959871;28;20765;-79
2023/06/14 06:39:14;;;;;;;14.60;12.23;;;;;;;;;;4961408;28;20509;-85
2023/06/14 06:41:41;;;;;;;13.90;11.13;;;;;;;;;;4962678;28;20520;-85
2023/06/14 06:44:12;;;;;;;14.57;10.43;;;;;;;;;;4960789;28;20424;-85
2023/06/14 06:46:40;;;;;;;12.83;10.63;;;;;;;;;;4959103;28;20416;-85
2023/06/14 06:49:14;;;;;;;13.27;11.57;;;;;;;;;;4959787;28;20947;-85
2023/06/14 06:51:44;;;;;;;21.57;12.20;;;;;;;;;;4960434;28;20485;-85
2023/06/14 06:54:12;;;;;;;14.00;11.70;;;;;;;;;;4959593;28;20799;-80
2023/06/14 06:56:40;;;;;;;13.17;11.87;;;;;;;;;;4960187;28;20416;-84
2023/06/14 06:59:07;;;;;;;15.60;14.00;;;;;;;;;;4958956;28;20598;-85
2023/06/14 07:01:36;;;;;;;16.73;12.43;;;;;;;;;;4960878;28;20748;-87
2023/06/14 07:04:03;;;;;;;13.03;11.57;;;;;;;;;;4959463;28;20459;-85
2023/06/14 07:06:31;;;;;;;14.40;12.07;;;;;;;;;;4959247;28;20453;-84
2023/06/14 07:09:01;;;;;;;13.73;12.27;;;;;;;;;;4965855;28;20649;-81
2023/06/14 07:11:28;;;;;;;15.23;10.97;;;;;;;;;;4967187;28;20463;-79
2023/06/14 07:13:57;;;;;;;13.53;12.23;;;;;;;;;;4967081;28;20427;-83
2023/06/14 07:16:25;;;;;;;13.80;12.17;;;;;;;;;;4967761;28;20446;-80
2023/06/14 07:18:53;;;;;;;12.37;11.20;;;;;;;;;;4964828;28;20634;-82
2023/06/14 07:21:20;;;;;;;14.10;12.40;;;;;;;;;;4958762;28;20577;-83
2023/06/14 07:23:47;;;;;;;14.57;11.73;;;;;;;;;;4958867;28;20468;-83
2023/06/14 07:26:15;;;;;;;15.40;12.30;;;;;;;;;;4958551;28;20515;-83
2023/06/14 07:28:44;;;;;;;16.70;14.90;;;;;;;;;;4958854;28;20424;-84
2023/06/14 07:31:12;;;;;;;14.97;12.77;;;;;;;;;;4953748;28;20500;-81
2023/06/14 07:33:40;;;;;;;14.83;12.20;;;;;;;;;;4958802;28;20492;-83
2023/06/14 07:36:07;;;;;;;13.50;12.30;;;;;;;;;;4956757;28;20583;-81
2023/06/14 07:38:36;;;;;;;14.73;13.37;;;;;;;;;;4957644;28;20482;-82
2023/06/14 07:41:03;;;;;;;17.00;13.07;;;;;;;;;;4959905;28;20444;-81
2023/06/14 07:43:31;;;;;;;14.33;12.93;;;;;;;;;;4958756;28;20767;-81
2023/06/14 07:45:58;;;;;;;13.73;12.33;;;;;;;;;;4959224;28;20416;-81
2023/06/14 07:48:34;;;;;;;15.10;13.53;;;;;;;;;;4954821;28;20417;-81
2023/06/14 07:51:02;;;;;;;12.97;11.70;;;;;;;;;;4958785;28;20467;-82
2023/06/14 07:53:30;;;;;;;13.17;11.97;;;;;;;;;;4942360;28;20456;-86
2023/06/14 07:55:58;;;;;;;13.97;12.50;;;;;;;;;;4963626;28;20517;-79
2023/06/14 07:58:26;;;;;;;14.23;12.63;;;;;;;;;;4968726;28;20459;-82
2023/06/14 08:00:53;;;;;;;13.07;11.43;;;;;;;;;;4969468;28;20475;-79
2023/06/14 08:03:22;;;;;;;13.00;11.57;;;;;;;;;;4963298;28;20461;-85
2023/06/14 08:05:50;;;;;;;13.47;12.00;;;;;;;;;;4958927;28;20411;-80
2023/06/14 08:08:17;;;;;;;12.70;11.50;;;;;;;;;;4958400;28;20431;-81
2023/06/14 08:10:45;;;;;;;12.10;10.83;;;;;;;;;;4960546;28;20537;-82
2023/06/14 08:13:13;;;;;;;12.50;11.20;;;;;;;;;;4962171;28;20492;-83
2023/06/14 08:15:40;;;;;;;11.20;10.10;;;;;;;;;;4971843;28;20439;-83
2023/06/14 08:18:08;;;;;;;12.90;11.60;;;;;;;;;;4971031;28;20424;-86
2023/06/14 08:20:36;;;;;;;15.30;12.40;;;;;;;;;;4962468;28;20437;-85
2023/06/14 08:23:04;;;;;;;19.50;12.03;;;;;;;;;;4961956;28;20449;-83
2023/06/14 08:25:31;;;;;;;12.93;10.73;;;;;;;;;;4963789;28;20453;-84
2023/06/14 08:28:00;;;;;;;11.73;10.47;;;;;;;;;;4963678;28;20570;-83
2023/06/14 08:30:27;;;;;;;13.13;11.80;;;;;;;;;;4969442;28;20494;-83
2023/06/14 08:32:55;;;;;;;13.13;11.93;;;;;;;;;;4949940;29;20540;-80
2023/06/14 08:35:41;;;;;;;17.03;10.60;;;;;;;;;;4963537;28;20439;-82
2023/06/14 08:38:10;;;;;;;13.00;11.50;;;;;;;;;;4966685;28;20519;-82
2023/06/14 08:40:40;;;;;;;10.27;9.40;;;;;;;;;;4965370;28;20424;-84
2023/06/14 08:43:08;;;;;;;13.17;11.20;;;;;;;;;;4963444;28;20564;-80
2023/06/14 08:45:36;;;;;;;11.30;10.20;;;;;;;;;;4963946;28;20615;-84
2023/06/14 08:48:03;;;;;;;12.40;11.07;;;;;;;;;;4962361;28;20690;-84
2023/06/14 08:50:33;;;;;;;11.47;10.30;;;;;;;;;;4967672;28;20420;-84
2023/06/14 08:53:03;;;;;;;10.83;9.70;;;;;;;;;;4961477;28;20456;-84
2023/06/14 08:55:32;;;;;;;11.73;10.30;;;;;;;;;;4958996;28;20486;-84
2023/06/14 08:58:04;;;;;;;15.23;11.03;;;;;;;;;;4960342;28;20476;-81
2023/06/14 09:00:34;;;;;;;12.70;10.60;;;;;;;;;;4962655;28;20449;-83
2023/06/14 09:03:03;;;;;;;11.70;10.50;;;;;;;;;;4963061;28;20763;-80
2023/06/14 09:05:30;;;;;;;11.37;10.27;;;;;;;;;;4964763;28;20573;-86
2023/06/14 09:08:00;;;;;;;11.97;10.87;;;;;;;;;;4963570;28;20480;-82
2023/06/14 09:10:37;;;;;;;22.43;10.50;;;;;;;;;;4956218;28;20460;-82
2023/06/14 09:13:05;;;;;;;11.13;10.10;;;;;;;;;;4958901;28;20451;-84
2023/06/14 09:15:33;;;;;;;18.03;10.90;;;;;;;;;;4963190;28;20411;-83
2023/06/14 09:18:04;;;;;;;11.13;10.10;;;;;;;;;;4961875;28;20419;-81
2023/06/14 09:20:32;;;;;;;11.20;10.10;;;;;;;;;;4952968;28;20478;-84
2023/06/14 09:23:01;;;;;;;10.80;9.80;;;;;;;;;;4961932;28;20449;-84
2023/06/14 09:25:28;;;;;;;11.77;10.57;;;;;;;;;;4955806;28;20444;-85
2023/06/14 09:27:58;;;;;;;10.40;9.40;;;;;;;;;;4960929;28;20513;-81
2023/06/14 09:30:25;;;;;;;12.50;9.10;;;;;;;;;;4963146;28;20503;-85
2023/06/14 09:32:53;;;;;;;11.40;10.20;;;;;;;;;;4963983;28;20676;-82
2023/06/14 09:35:21;;;;;;;12.37;10.03;;;;;;;;;;4963184;28;20693;-84
2023/06/14 09:37:48;;;;;;;9.37;8.67;;;;;;;;;;4959741;28;20504;-84
2023/06/14 09:40:20;;;;;;;11.43;9.00;;;;;;;;;;4953537;28;20424;-82
2023/06/14 09:42:48;;;;;;;9.20;8.30;;;;;;;;;;4963671;28;20480;-79
2023/06/14 09:45:21;;;;;;;10.27;9.27;;;;;;;;;;4965439;28;20456;-84
2023/06/14 09:47:50;;;;;;;9.80;8.60;;;;;;;;;;4962966;28;20541;-84
2023/06/14 09:50:33;;;;;;;9.53;8.53;;;;;;;;;;4961113;28;20559;-82
2023/06/14 09:53:03;;;;;;;16.63;9.30;;;;;;;;;;4963388;28;20502;-80
2023/06/14 09:55:31;;;;;;;12.13;11.03;;;;;;;;;;4962419;28;20833;-82
2023/06/14 09:58:01;;;;;;;11.40;10.10;;;;;;;;;;4962346;28;20456;-82
2023/06/14 10:00:31;;;;;;;13.00;11.90;;;;;;;;;;4956691;28;20896;-81
2023/06/14 10:03:01;;;;;;;12.53;11.60;;;;;;;;;;4963793;28;20627;-86
2023/06/14 10:05:28;;;;;;;12.27;11.27;;;;;;;;;;4956065;28;21180;-82
2023/06/14 10:08:08;;;;;;;11.20;10.17;;;;;;;;;;4961531;28;20449;-86
2023/06/14 10:10:35;;;;;;;12.63;10.70;;;;;;;;;;4963324;28;20673;-83
2023/06/14 10:13:03;;;;;;;16.30;10.47;;;;;;;;;;4962697;28;20459;-79
2023/06/14 10:15:39;;;;;;;12.93;9.80;;;;;;;;;;4959918;28;20537;-83
2023/06/14 10:18:10;;;;;;;9.50;8.60;;;;;;;;;;4963602;28;20723;-80
2023/06/14 10:20:42;;;;;;;8.90;8.13;;;;;;;;;;4966371;28;20471;-81
2023/06/14 10:23:19;;;;;;;9.30;8.47;;;;;;;;;;4964292;28;20408;-81
2023/06/14 10:25:50;;;;;;;8.37;7.57;;;;;;;;;;4961187;28;20465;-79
2023/06/14 10:28:19;;;;;;;8.87;7.17;;;;;;;;;;4959605;28;20452;-80
2023/06/14 10:31:06;;;;;;;12.40;9.50;;;;;;;;;;4962936;28;20688;-82
2023/06/14 10:33:34;;;;;;;9.53;8.40;;;;;;;;;;4972535;28;20457;-80
2023/06/14 10:36:26;;;;;;;8.43;7.73;;;;;;;;;;4971468;28;20448;-82
2023/06/14 10:39:11;;;;;;;7.87;7.17;;;;;;;;;;4956458;28;20416;-81
2023/06/14 10:41:39;;;;;;;7.10;6.37;;;;;;;;;;4959423;28;20633;-81
2023/06/14 10:44:13;;;;;;;6.77;6.17;;;;;;;;;;4960202;28;20428;-81
2023/06/14 10:46:40;;;;;;;8.43;5.80;;;;;;;;;;4962561;28;20779;-81
2023/06/14 10:49:11;;;;;;;8.90;7.30;;;;;;;;;;4959945;28;20474;-83
2023/06/14 10:51:46;;;;;;;7.70;6.90;;;;;;;;;;4961258;28;20452;-81
2023/06/14 10:54:17;;;;;;;8.70;6.70;;;;;;;;;;4958585;28;20471;-88
2023/06/14 10:56:48;;;;;;;7.53;6.23;;;;;;;;;;4962236;28;20416;-83
2023/06/14 10:59:17;;;;;;;6.70;6.20;;;;;;;;;;4960160;28;20543;-83
2023/06/14 11:01:58;;;;;;;8.17;7.43;;;;;;;;;;4959824;28;20442;-82
2023/06/14 11:04:34;;;;;;;11.73;7.23;;;;;;;;;;4960352;28;20411;-84
2023/06/14 11:07:20;;;;;;;6.53;6.00;;;;;;;;;;4963126;28;20528;-84
2023/06/14 11:10:03;;;;;;;6.77;5.83;;;;;;;;;;4956603;28;20427;-81
2023/06/14 11:12:32;;;;;;;5.97;5.53;;;;;;;;;;4954141;28;20516;-83
2023/06/14 11:15:00;;;;;;;8.23;6.10;;;;;;;;;;4962815;28;20477;-82
2023/06/14 11:17:27;;;;;;;6.47;5.80;;;;;;;;;;4966812;28;20412;-80
2023/06/14 11:20:15;;;;;;;6.13;5.63;;;;;;;;;;4964089;28;20461;-80
2023/06/14 11:22:47;;;;;;;7.20;6.60;;;;;;;;;;4996334;28;20456;-82
2023/06/14 11:25:15;;;;;;;6.70;6.20;;;;;;;;;;4973977;28;20491;-83
2023/06/14 11:27:43;;;;;;;6.57;6.07;;;;;;;;;;4965443;28;20664;-82
2023/06/14 11:30:11;;;;;;;6.00;5.53;;;;;;;;;;4952999;28;20457;-83
2023/06/14 11:32:38;;;;;;;7.13;5.97;;;;;;;;;;4959051;28;20423;-80
2023/06/14 11:35:06;;;;;;;6.77;6.27;;;;;;;;;;4968941;28;20452;-84
2023/06/14 11:37:34;;;;;;;8.00;5.90;;;;;;;;;;4965330;28;20438;-83
2023/06/14 11:40:01;;;;;;;7.10;6.40;;;;;;;;;;4972169;28;20635;-80
2023/06/14 11:42:30;;;;;;;7.60;6.83;;;;;;;;;;4962965;28;20458;-79
2023/06/14 11:44:57;;;;;;;7.23;6.73;;;;;;;;;;4963362;28;20428;-83
2023/06/14 11:47:36;;;;;;;5.87;5.43;;;;;;;;;;4954072;28;20869;-80
2023/06/14 11:50:04;;;;;;;7.43;6.83;;;;;;;;;;4962159;28;20520;-84
2023/06/14 11:52:32;;;;;;;7.50;6.80;;;;;;;;;;4959858;28;20412;-83
2023/06/14 11:55:00;;;;;;;6.70;6.17;;;;;;;;;;4959739;28;20479;-80
2023/06/14 11:57:27;;;;;;;7.90;7.23;;;;;;;;;;4958982;28;20631;-82
2023/06/14 11:59:55;;;;;;;8.43;7.53;;;;;;;;;;4957711;28;20517;-81
2023/06/14 12:02:25;;;;;;;6.40;6.00;;;;;;;;;;4970939;28;20508;-80
2023/06/14 12:04:53;;;;;;;7.13;6.43;;;;;;;;;;4973911;28;20700;-85
2023/06/14 12:07:22;;;;;;;7.40;6.30;;;;;;;;;;4967209;28;20812;-84
2023/06/14 12:09:59;;;;;;;7.07;6.57;;;;;;;;;;4959214;28;20636;-85
2023/06/14 12:12:26;;;;;;;7.90;5.90;;;;;;;;;;4963526;28;20411;-83
2023/06/14 12:14:54;;;;;;;11.73;5.67;;;;;;;;;;4964290;28;20491;-79
2023/06/14 12:17:21;;;;;;;7.40;5.73;;;;;;;;;;4964554;28;20420;-80
2023/06/14 12:19:51;;;;;;;6.57;6.07;;;;;;;;;;4966069;29;20759;-84
2023/06/14 12:22:18;;;;;;;5.90;5.40;;;;;;;;;;4964668;28;20512;-79
2023/06/14 12:24:46;;;;;;;6.30;5.60;;;;;;;;;;4964009;28;20420;-82
2023/06/14 12:27:15;;;;;;;6.30;5.77;;;;;;;;;;4967469;28;20487;-78
2023/06/14 12:29:43;;;;;;;6.30;5.70;;;;;;;;;;4969863;28;20771;-83
2023/06/14 12:32:16;;;;;;;6.10;5.60;;;;;;;;;;4965783;28;20446;-84
2023/06/14 12:34:43;;;;;;;6.50;5.90;;;;;;;;;;4964826;28;20455;-81
2023/06/14 12:37:11;;;;;;;5.23;4.80;;;;;;;;;;4971992;28;20424;-80
2023/06/14 12:39:39;;;;;;;5.57;5.17;;;;;;;;;;4963718;28;20440;-79
2023/06/14 12:42:07;;;;;;;6.43;5.93;;;;;;;;;;4962633;28;20449;-79
2023/06/14 12:44:40;;;;;;;8.83;7.20;;;;;;;;;;4962675;28;20623;-84
2023/06/14 12:47:07;;;;;;;7.60;5.80;;;;;;;;;;4962188;28;20646;-82
2023/06/14 12:49:35;;;;;;;6.70;6.10;;;;;;;;;;4964629;28;20653;-80
2023/06/14 12:52:02;;;;;;;6.10;5.60;;;;;;;;;;4963767;28;20516;-83
2023/06/14 12:54:30;;;;;;;6.90;6.20;;;;;;;;;;4965097;28;20483;-82
2023/06/14 12:57:09;;;;;;;7.33;6.27;;;;;;;;;;4963201;28;20460;-83
2023/06/14 12:59:41;;;;;;;5.67;5.17;;;;;;;;;;4959635;28;20689;-86
2023/06/14 13:02:14;;;;;;;6.70;5.87;;;;;;;;;;4962777;28;20473;-81
2023/06/14 13:04:42;;;;;;;8.50;6.60;;;;;;;;;;4963161;28;20437;-85
2023/06/14 13:07:14;;;;;;;6.17;5.57;;;;;;;;;;4963095;28;20443;-81
2023/06/14 13:09:42;;;;;;;6.70;5.70;;;;;;;;;;4957812;28;20455;-81
2023/06/14 13:12:12;;;;;;;7.43;6.73;;;;;;;;;;4963644;28;20822;-81
2023/06/14 13:14:41;;;;;;;12.70;5.73;;;;;;;;;;4963400;28;20456;-86
2023/06/14 13:17:09;;;;;;;6.63;6.00;;;;;;;;;;4963034;28;20457;-82
2023/06/14 13:19:37;;;;;;;8.93;7.07;;;;;;;;;;4965175;28;20663;-82
2023/06/14 13:22:05;;;;;;;6.53;5.93;;;;;;;;;;4965664;28;20451;-83
2023/06/14 13:24:32;;;;;;;6.73;6.23;;;;;;;;;;4962393;28;20423;-84
2023/06/14 13:27:00;;;;;;;6.87;6.20;;;;;;;;;;4962051;28;20428;-82
2023/06/14 13:29:27;;;;;;;7.53;6.83;;;;;;;;;;4957950;28;20453;-82
2023/06/14 13:31:55;;;;;;;7.00;6.40;;;;;;;;;;4964365;28;20781;-82
2023/06/14 13:34:22;;;;;;;7.60;7.00;;;;;;;;;;4966077;28;20770;-82
2023/06/14 13:36:50;;;;;;;6.40;5.90;;;;;;;;;;4965062;28;20465;-83
2023/06/14 13:39:18;;;;;;;7.63;6.93;;;;;;;;;;4962290;28;20474;-82
2023/06/14 13:41:45;;;;;;;7.53;6.90;;;;;;;;;;4963291;28;20488;-84
2023/06/14 13:44:14;;;;;;;8.07;6.70;;;;;;;;;;4961903;28;20484;-83
2023/06/14 13:46:43;;;;;;;6.83;6.00;;;;;;;;;;4961826;28;20457;-80
2023/06/14 13:49:13;;;;;;;9.13;6.60;;;;;;;;;;4966426;28;20531;-81
2023/06/14 13:51:40;;;;;;;8.20;6.63;;;;;;;;;;4964318;28;20416;-86
2023/06/14 13:54:07;;;;;;;7.30;5.90;;;;;;;;;;4961732;28;20470;-79
2023/06/14 13:56:35;;;;;;;6.00;5.40;;;;;;;;;;4961614;28;20766;-84
2023/06/14 13:59:02;;;;;;;6.60;6.00;;;;;;;;;;4961766;28;20729;-83
2023/06/14 14:01:30;;;;;;;6.57;5.90;;;;;;;;;;4962585;28;20453;-81
2023/06/14 14:03:58;;;;;;;6.80;6.03;;;;;;;;;;4961409;28;20435;-84
2023/06/14 14:06:26;;;;;;;12.63;5.77;;;;;;;;;;4966430;28;22539;-82
2023/06/14 14:08:53;;;;;;;9.93;6.57;;;;;;;;;;4970352;28;20513;-81
2023/06/14 14:11:23;;;;;;;7.67;6.90;;;;;;;;;;4961681;28;20477;-85
2023/06/14 14:13:51;;;;;;;9.23;6.03;;;;;;;;;;4962223;28;20472;-82
2023/06/14 14:16:19;;;;;;;7.27;6.20;;;;;;;;;;4960947;28;20469;-82
2023/06/14 14:18:47;;;;;;;7.50;6.67;;;;;;;;;;4962510;28;20424;-84
2023/06/14 14:21:14;;;;;;;7.07;6.47;;;;;;;;;;4962762;28;20424;-85
2023/06/14 14:23:45;;;;;;;6.17;5.67;;;;;;;;;;4966068;28;20420;-81
2023/06/14 14:26:15;;;;;;;6.77;6.20;;;;;;;;;;4964335;28;20524;-81
2023/06/14 14:28:43;;;;;;;15.83;7.03;;;;;;;;;;4965831;28;20522;-84
2023/06/14 14:31:11;;;;;;;6.87;6.17;;;;;;;;;;4963601;28;20459;-80
2023/06/14 14:33:38;;;;;;;8.90;6.37;;;;;;;;;;4960552;28;20489;-83
2023/06/14 14:36:07;;;;;;;6.87;5.67;;;;;;;;;;4960852;28;20477;-82
2023/06/14 14:38:34;;;;;;;7.00;5.30;;;;;;;;;;4961192;28;20529;-82
2023/06/14 14:41:02;;;;;;;5.50;4.70;;;;;;;;;;4961479;28;20635;-84
2023/06/14 14:43:30;;;;;;;5.63;5.13;;;;;;;;;;4959671;28;20434;-84
2023/06/14 14:46:00;;;;;;;4.60;4.20;;;;;;;;;;4958750;28;20597;-83